createdAt,value
2023-01-28T00:01:19.458Z,4.77
2023-01-28T00:03:51.066Z,5.10
2023-01-28T00:06:19.061Z,4.90
2023-01-28T00:08:45.550Z,4.30
2023-01-28T00:11:13.449Z,4.10
2023-01-28T00:13:41.059Z,4.70
2023-01-28T00:16:09.759Z,4.60
2023-01-28T00:18:36.503Z,4.47
2023-01-28T00:21:12.840Z,5.00
2023-01-28T00:23:40.926Z,5.27
2023-01-28T00:26:11.345Z,5.03
2023-01-28T00:28:37.792Z,5.10
2023-01-28T00:31:09.882Z,4.73
2023-01-28T00:33:37.144Z,5.90
2023-01-28T00:36:06.595Z,5.03
2023-01-28T00:38:34.444Z,4.57
2023-01-28T00:41:12.743Z,5.27
2023-01-28T00:43:39.904Z,4.40
2023-01-28T00:46:09.724Z,4.63
2023-01-28T00:48:38.293Z,4.60
2023-01-28T00:51:05.098Z,4.57
2023-01-28T00:53:32.065Z,5.07
2023-01-28T00:55:58.525Z,5.30
2023-01-28T00:58:25.045Z,5.20
2023-01-28T01:00:51.774Z,5.07
2023-01-28T01:03:19.628Z,4.97
2023-01-28T01:05:46.616Z,5.07
2023-01-28T01:08:13.413Z,4.90
2023-01-28T01:10:40.391Z,4.90
2023-01-28T01:13:07.924Z,5.20
2023-01-28T01:15:34.460Z,6.13
2023-01-28T01:18:01.107Z,5.97
2023-01-28T01:20:30.461Z,5.13
2023-01-28T01:22:56.898Z,5.33
2023-01-28T01:25:23.298Z,5.33
2023-01-28T01:27:50.485Z,5.33
2023-01-28T01:30:17.216Z,5.30
2023-01-28T01:32:43.664Z,5.10
2023-01-28T01:35:11.099Z,5.67
2023-01-28T01:37:37.722Z,5.20
2023-01-28T01:40:05.539Z,5.13
2023-01-28T01:42:32.837Z,5.73
2023-01-28T01:45:03.837Z,4.53
2023-01-28T01:47:36.259Z,5.10
2023-01-28T01:50:09.350Z,5.43
2023-01-28T01:52:36.566Z,5.30
2023-01-28T01:55:07.096Z,5.70
2023-01-28T01:57:36.142Z,5.30
2023-01-28T02:00:06.301Z,5.00
2023-01-28T02:02:39.845Z,5.87
2023-01-28T02:05:09.167Z,5.03
2023-01-28T02:07:36.782Z,4.93
2023-01-28T02:10:03.754Z,5.33
2023-01-28T02:12:39.893Z,5.17
2023-01-28T02:15:09.915Z,5.13
2023-01-28T02:17:37.802Z,5.93
2023-01-28T02:20:06.055Z,5.23
2023-01-28T02:22:53.713Z,6.10
2023-01-28T02:25:49.128Z,5.03
2023-01-28T02:28:33.546Z,5.63
2023-01-28T02:31:03.127Z,5.70
2023-01-28T02:33:36.696Z,5.33
2023-01-28T02:36:29.905Z,5.10
2023-01-28T02:39:00.001Z,4.87
2023-01-28T02:41:36.106Z,5.30
2023-01-28T02:44:03.741Z,5.60
2023-01-28T02:46:48.783Z,5.47
2023-01-28T02:49:19.767Z,4.87
2023-01-28T02:52:17.834Z,5.23
2023-01-28T02:55:01.155Z,4.73
2023-01-28T02:57:43.179Z,5.03
2023-01-28T03:00:12.399Z,5.03
2023-01-28T03:02:41.736Z,5.07
2023-01-28T03:05:27.840Z,4.67
2023-01-28T03:07:54.669Z,4.80
2023-01-28T03:10:25.663Z,5.70
2023-01-28T03:13:14.633Z,4.90
2023-01-28T03:16:08.101Z,5.17
2023-01-28T03:19:13.340Z,5.00
2023-01-28T03:22:02.901Z,5.13
2023-01-28T03:24:51.684Z,5.37
2023-01-28T03:27:52.485Z,4.70
2023-01-28T03:31:01.662Z,5.27
2023-01-28T03:33:48.576Z,4.77
2023-01-28T03:36:34.584Z,4.83
2023-01-28T03:39:02.016Z,4.67
2023-01-28T03:41:28.483Z,5.67
2023-01-28T03:43:56.086Z,5.37
2023-01-28T03:46:23.050Z,5.07
2023-01-28T03:48:49.505Z,4.33
2023-01-28T03:51:16.652Z,5.60
2023-01-28T03:53:43.256Z,4.83
2023-01-28T03:56:09.773Z,4.53
2023-01-28T03:58:56.627Z,5.17
2023-01-28T04:01:23.535Z,5.40
2023-01-28T04:03:50.040Z,4.40
2023-01-28T04:06:16.514Z,4.70
2023-01-28T04:08:48.351Z,4.70
2023-01-28T04:11:19.867Z,4.73
2023-01-28T04:13:47.471Z,4.80
2023-01-28T04:16:16.170Z,5.23
2023-01-28T04:18:43.658Z,5.20
2023-01-28T04:21:10.239Z,5.33
2023-01-28T04:23:36.831Z,4.83
2023-01-28T04:26:04.139Z,5.27
2023-01-28T04:28:30.790Z,4.53
2023-01-28T04:30:57.320Z,5.20
2023-01-28T04:33:23.779Z,4.70
2023-01-28T04:35:50.228Z,5.10
2023-01-28T04:38:16.748Z,5.07
2023-01-28T04:40:43.153Z,5.00
2023-01-28T04:43:09.581Z,5.03
2023-01-28T04:45:35.978Z,4.80
2023-01-28T04:48:02.393Z,4.73
2023-01-28T04:50:28.842Z,5.30
2023-01-28T04:52:55.273Z,5.73
2023-01-28T04:55:21.768Z,4.83
2023-01-28T04:57:48.731Z,5.30
2023-01-28T05:00:15.776Z,5.93
2023-01-28T05:02:42.450Z,5.03
2023-01-28T05:05:09.160Z,4.83
2023-01-28T05:07:36.431Z,5.03
2023-01-28T05:10:03.155Z,5.90
2023-01-28T05:12:30.472Z,5.47
2023-01-28T05:14:56.912Z,5.40
2023-01-28T05:17:23.400Z,5.67
2023-01-28T05:19:49.874Z,5.10
2023-01-28T05:22:16.385Z,6.73
2023-01-28T05:24:42.928Z,6.00
2023-01-28T05:27:09.397Z,6.63
2023-01-28T05:29:35.941Z,5.40
2023-01-28T05:32:02.536Z,5.00
2023-01-28T05:34:28.997Z,5.90
2023-01-28T05:36:55.500Z,5.60
2023-01-28T05:39:21.930Z,6.10
2023-01-28T05:41:48.341Z,6.03
2023-01-28T05:44:14.767Z,6.50
2023-01-28T05:46:45.442Z,5.80
2023-01-28T05:49:13.486Z,5.53
2023-01-28T05:51:40.684Z,4.97
2023-01-28T05:54:08.418Z,5.97
2023-01-28T05:56:36.512Z,6.17
2023-01-28T05:59:04.104Z,5.70
2023-01-28T06:01:30.595Z,5.60
2023-01-28T06:03:57.080Z,5.47
2023-01-28T06:06:23.525Z,6.07
2023-01-28T06:08:50.019Z,5.90
2023-01-28T06:11:17.161Z,6.03
2023-01-28T06:13:44.826Z,5.13
2023-01-28T06:16:11.285Z,5.57
2023-01-28T06:18:37.747Z,5.20
2023-01-28T06:21:04.399Z,5.40
2023-01-28T06:23:30.874Z,5.03
2023-01-28T06:25:57.671Z,5.73
2023-01-28T06:28:25.005Z,6.27
2023-01-28T06:30:54.968Z,6.10
2023-01-28T06:33:22.636Z,5.97
2023-01-28T06:35:49.018Z,5.37
2023-01-28T06:38:15.569Z,6.17
2023-01-28T06:40:42.275Z,5.67
2023-01-28T06:43:08.741Z,5.60
2023-01-28T06:45:35.151Z,5.73
2023-01-28T06:48:02.098Z,5.50
2023-01-28T06:50:29.511Z,6.63
2023-01-28T06:52:55.895Z,5.27
2023-01-28T06:55:22.271Z,5.87
2023-01-28T06:57:48.719Z,5.40
2023-01-28T07:00:16.814Z,7.13
2023-01-28T07:02:43.462Z,5.87
2023-01-28T07:05:10.539Z,5.97
2023-01-28T07:07:37.084Z,6.10
2023-01-28T07:10:03.905Z,5.70
2023-01-28T07:12:30.363Z,5.80
2023-01-28T07:14:56.779Z,5.70
2023-01-28T07:17:23.338Z,5.80
2023-01-28T07:19:49.847Z,5.40
2023-01-28T07:22:16.273Z,6.23
2023-01-28T07:24:42.721Z,5.20
2023-01-28T07:27:09.144Z,5.60
2023-01-28T07:29:35.603Z,5.87
2023-01-28T07:32:02.378Z,5.97
2023-01-28T07:34:28.794Z,7.17
2023-01-28T07:36:57.365Z,5.50
2023-01-28T07:39:23.930Z,6.83
2023-01-28T07:41:50.596Z,5.80
2023-01-28T07:44:17.004Z,5.83
2023-01-28T07:46:43.443Z,5.90
2023-01-28T07:49:09.877Z,6.33
2023-01-28T07:51:36.343Z,5.63
2023-01-28T07:54:02.846Z,5.83
2023-01-28T07:56:31.282Z,6.10
2023-01-28T07:58:57.692Z,5.10
2023-01-28T08:01:24.233Z,4.93
2023-01-28T08:03:50.993Z,5.53
2023-01-28T08:06:17.514Z,6.03
2023-01-28T08:08:43.971Z,4.93
2023-01-28T08:11:11.568Z,5.77
2023-01-28T08:13:38.024Z,4.97
2023-01-28T08:16:04.990Z,5.70
2023-01-28T08:18:31.593Z,6.50
2023-01-28T08:20:59.083Z,4.83
2023-01-28T08:23:26.962Z,6.07
2023-01-28T08:25:54.290Z,5.17
2023-01-28T08:28:22.092Z,5.67
2023-01-28T08:30:48.613Z,5.40
2023-01-28T08:33:16.465Z,5.00
2023-01-28T08:35:42.978Z,5.37
2023-01-28T08:38:12.298Z,5.60
2023-01-28T08:40:39.162Z,5.20
2023-01-28T08:43:05.633Z,5.53
2023-01-28T08:45:32.413Z,5.63
2023-01-28T08:48:01.311Z,5.60
2023-01-28T08:50:32.504Z,6.30
2023-01-28T08:53:01.396Z,5.23
2023-01-28T08:55:28.848Z,6.20
2023-01-28T08:57:57.502Z,5.10
2023-01-28T09:00:25.040Z,6.00
2023-01-28T09:02:53.085Z,4.80
2023-01-28T09:05:20.770Z,5.27
2023-01-28T09:07:48.163Z,5.33
2023-01-28T09:10:16.599Z,5.40
2023-01-28T09:12:44.288Z,5.73
2023-01-28T09:15:11.882Z,5.47
2023-01-28T09:17:39.042Z,5.87
2023-01-28T09:20:06.951Z,5.57
2023-01-28T09:22:33.711Z,4.87
2023-01-28T09:25:00.149Z,5.17
2023-01-28T09:27:26.626Z,5.00
2023-01-28T09:29:53.055Z,5.57
2023-01-28T09:32:19.505Z,5.60
2023-01-28T09:34:45.940Z,5.27
2023-01-28T09:37:12.409Z,5.47
2023-01-28T09:39:38.895Z,5.00
2023-01-28T09:42:26.731Z,4.67
2023-01-28T09:45:07.820Z,4.70
2023-01-28T09:47:40.762Z,5.40
2023-01-28T09:50:34.402Z,4.83
2023-01-28T09:53:07.619Z,3.90
2023-01-28T09:55:45.993Z,5.83
2023-01-28T09:58:16.098Z,5.10
2023-01-28T10:00:55.372Z,4.70
2023-01-28T10:03:22.629Z,5.57
2023-01-28T10:06:07.378Z,4.97
2023-01-28T10:08:50.561Z,5.30
2023-01-28T10:11:24.587Z,4.97
2023-01-28T10:14:04.675Z,4.40
2023-01-28T10:16:40.546Z,5.17
2023-01-28T10:19:11.169Z,4.50
2023-01-28T10:21:49.768Z,4.63
2023-01-28T10:24:38.441Z,4.63
2023-01-28T10:27:31.492Z,5.27
2023-01-28T10:30:00.411Z,4.47
2023-01-28T10:32:44.012Z,4.70
2023-01-28T10:35:10.571Z,5.20
2023-01-28T10:37:40.227Z,4.33
2023-01-28T10:40:13.493Z,3.90
2023-01-28T10:42:40.123Z,4.20
2023-01-28T10:45:19.646Z,5.00
2023-01-28T10:48:09.388Z,4.67
2023-01-28T10:50:35.947Z,5.03
2023-01-28T10:53:05.316Z,4.37
2023-01-28T10:55:45.509Z,4.03
2023-01-28T10:58:19.739Z,4.10
2023-01-28T11:00:46.431Z,3.40
2023-01-28T11:03:19.220Z,2.90
2023-01-28T11:05:53.102Z,3.83
2023-01-28T11:08:20.594Z,3.23
2023-01-28T11:10:48.208Z,3.23
2023-01-28T11:13:26.618Z,3.30
2023-01-28T11:16:14.291Z,3.07
2023-01-28T11:18:47.911Z,3.43
2023-01-28T11:21:26.836Z,3.93
2023-01-28T11:24:02.620Z,3.50
2023-01-28T11:26:32.864Z,3.10
2023-01-28T11:28:59.678Z,3.03
2023-01-28T11:31:27.461Z,2.90
2023-01-28T11:33:59.914Z,2.80
2023-01-28T11:36:28.943Z,3.30
2023-01-28T11:39:07.266Z,2.80
2023-01-28T11:41:41.660Z,2.77
2023-01-28T11:44:26.500Z,2.73
2023-01-28T11:47:05.801Z,2.83
2023-01-28T11:49:45.038Z,3.10
2023-01-28T11:53:02.676Z,2.70
2023-01-28T11:55:37.935Z,2.53
2023-01-28T11:58:33.746Z,2.63
2023-01-28T12:01:16.698Z,2.70
2023-01-28T12:03:48.949Z,3.20
2023-01-28T12:06:30.369Z,2.70
2023-01-28T12:09:16.004Z,3.17
2023-01-28T12:12:12.922Z,2.77
2023-01-28T12:14:58.210Z,3.20
2023-01-28T12:17:43.305Z,2.70
2023-01-28T12:20:26.012Z,3.90
2023-01-28T12:23:18.844Z,3.40
2023-01-28T12:25:49.069Z,3.47
2023-01-28T12:28:42.572Z,3.70
2023-01-28T12:31:39.913Z,4.10
2023-01-28T12:34:18.483Z,3.20
2023-01-28T12:37:03.403Z,3.57
2023-01-28T12:40:00.699Z,2.97
2023-01-28T12:42:48.438Z,3.30
2023-01-28T12:45:27.664Z,3.07
2023-01-28T12:47:59.001Z,3.10
2023-01-28T12:50:33.503Z,3.60
2023-01-28T12:53:12.002Z,3.40
2023-01-28T12:55:46.754Z,3.47
2023-01-28T12:58:22.865Z,3.83
2023-01-28T13:00:58.316Z,3.93
2023-01-28T13:03:39.936Z,3.60
2023-01-28T13:06:12.690Z,3.50
2023-01-28T13:08:39.108Z,3.40
2023-01-28T13:11:12.007Z,3.30
2023-01-28T13:13:43.772Z,3.07
2023-01-28T13:16:11.996Z,3.20
2023-01-28T13:18:42.446Z,2.87
2023-01-28T13:21:14.881Z,3.07
2023-01-28T13:23:49.597Z,3.27
2023-01-28T13:26:18.844Z,3.00
2023-01-28T13:28:51.128Z,3.27
2023-01-28T13:31:21.207Z,3.10
2023-01-28T13:33:49.204Z,3.50
2023-01-28T13:36:18.366Z,3.60
2023-01-28T13:38:46.268Z,3.50
2023-01-28T13:41:12.993Z,3.20
2023-01-28T13:43:41.873Z,3.27
2023-01-28T13:46:14.224Z,3.50
2023-01-28T13:48:45.579Z,2.97
2023-01-28T13:51:29.988Z,3.00
2023-01-28T13:54:07.314Z,3.00
2023-01-28T13:56:42.181Z,3.30
2023-01-28T13:59:39.356Z,3.37
2023-01-28T14:02:05.742Z,3.67
2023-01-28T14:04:41.849Z,3.40
2023-01-28T14:07:33.072Z,3.83
2023-01-28T14:10:25.076Z,3.50
2023-01-28T14:13:17.057Z,4.23
2023-01-28T14:16:22.185Z,3.30
2023-01-28T14:18:49.827Z,3.87
2023-01-28T14:21:19.675Z,3.40
2023-01-28T14:23:49.764Z,3.93
2023-01-28T14:26:54.321Z,3.17
2023-01-28T14:30:08.725Z,4.00
2023-01-28T14:32:35.402Z,3.70
2023-01-28T14:35:08.831Z,3.73
2023-01-28T14:37:35.760Z,3.70
2023-01-28T14:40:08.219Z,3.40
2023-01-28T14:42:40.904Z,3.20
2023-01-28T14:45:19.095Z,3.40
2023-01-28T14:48:11.014Z,4.07
2023-01-28T14:51:00.805Z,3.30
2023-01-28T14:53:50.025Z,3.60
2023-01-28T14:56:35.545Z,3.33
2023-01-28T14:59:22.103Z,3.53
2023-01-28T15:01:49.795Z,3.87
2023-01-28T15:04:27.155Z,3.63
2023-01-28T15:06:53.985Z,3.77
2023-01-28T15:09:21.774Z,3.27
2023-01-28T15:11:52.071Z,3.80
2023-01-28T15:14:27.941Z,4.03
2023-01-28T15:16:55.768Z,4.93
2023-01-28T15:19:35.122Z,4.37
2023-01-28T15:22:04.439Z,4.13
2023-01-28T15:24:33.737Z,5.50
2023-01-28T15:27:00.395Z,4.93
2023-01-28T15:29:34.171Z,4.07
2023-01-28T15:32:01.395Z,4.00
2023-01-28T15:34:30.675Z,4.30
2023-01-28T15:37:00.852Z,3.93
2023-01-28T15:39:29.297Z,3.70
2023-01-28T15:42:07.452Z,4.90
2023-01-28T15:44:39.435Z,4.07
2023-01-28T15:47:20.663Z,4.10
2023-01-28T15:49:50.333Z,4.70
2023-01-28T15:52:17.099Z,3.43
2023-01-28T15:54:47.820Z,4.03
2023-01-28T15:57:20.154Z,3.67
2023-01-28T15:59:51.004Z,6.67
2023-01-28T16:02:23.368Z,6.20
2023-01-28T16:05:00.475Z,5.50
2023-01-28T16:07:29.782Z,5.37
2023-01-28T16:09:58.950Z,7.33
2023-01-28T16:12:29.258Z,5.73
2023-01-28T16:15:01.903Z,6.23
2023-01-28T16:17:41.422Z,6.37
2023-01-28T16:20:19.323Z,6.93
2023-01-28T16:22:45.948Z,6.83
2023-01-28T16:25:32.046Z,7.00
2023-01-28T16:28:00.264Z,6.63
2023-01-28T16:30:27.566Z,7.27
2023-01-28T16:32:55.635Z,9.30
2023-01-28T16:35:29.805Z,9.30
2023-01-28T16:37:58.548Z,9.20
2023-01-28T16:40:25.627Z,9.73
2023-01-28T16:42:58.162Z,10.60
2023-01-28T16:45:25.235Z,9.67
2023-01-28T16:47:52.747Z,10.50
2023-01-28T16:50:21.916Z,9.63
2023-01-28T16:52:51.423Z,8.33
2023-01-28T16:55:20.416Z,8.33
2023-01-28T16:57:48.955Z,8.23
2023-01-28T17:00:22.714Z,8.07
2023-01-28T17:02:53.979Z,7.80
2023-01-28T17:05:21.811Z,8.07
2023-01-28T17:07:49.605Z,9.53
2023-01-28T17:10:17.428Z,9.27
2023-01-28T17:12:44.588Z,8.53
2023-01-28T17:15:11.531Z,8.27
2023-01-28T17:17:38.094Z,7.97
2023-01-28T17:20:06.227Z,9.00
2023-01-28T17:22:32.793Z,8.77
2023-01-28T17:24:59.218Z,8.10
2023-01-28T17:27:25.724Z,8.20
2023-01-28T17:29:53.287Z,8.73
2023-01-28T17:32:19.735Z,7.67
2023-01-28T17:34:47.833Z,7.93
2023-01-28T17:37:14.286Z,8.17
2023-01-28T17:39:42.112Z,7.97
2023-01-28T17:42:08.500Z,7.00
2023-01-28T17:44:34.920Z,7.83
2023-01-28T17:47:01.355Z,6.87
2023-01-28T17:49:27.758Z,6.83
2023-01-28T17:51:54.366Z,6.50
2023-01-28T17:54:20.845Z,5.97
2023-01-28T17:56:47.275Z,7.33
2023-01-28T17:59:16.840Z,6.67
2023-01-28T18:01:44.872Z,6.37
2023-01-28T18:04:13.027Z,6.70
2023-01-28T18:06:39.673Z,7.43
2023-01-28T18:09:07.118Z,6.90
2023-01-28T18:11:33.714Z,6.73
2023-01-28T18:14:00.282Z,6.47
2023-01-28T18:16:26.726Z,6.33
2023-01-28T18:18:53.341Z,6.47
2023-01-28T18:21:42.960Z,7.37
2023-01-28T18:24:17.414Z,7.70
2023-01-28T18:26:43.953Z,6.67
2023-01-28T18:29:16.437Z,7.30
2023-01-28T18:31:42.973Z,7.83
2023-01-28T18:34:09.444Z,7.63
2023-01-28T18:36:35.853Z,7.30
2023-01-28T18:39:02.310Z,8.13
2023-01-28T18:41:28.727Z,7.23
2023-01-28T18:43:55.833Z,7.50
2023-01-28T18:46:22.340Z,9.10
2023-01-28T18:48:48.815Z,7.70
2023-01-28T18:51:28.888Z,7.97
2023-01-28T18:54:01.794Z,7.50
2023-01-28T18:56:29.443Z,8.43
2023-01-28T18:59:00.816Z,7.97
2023-01-28T19:01:28.693Z,6.97
2023-01-28T19:03:56.885Z,7.10
2023-01-28T19:06:25.225Z,6.60
2023-01-28T19:08:53.792Z,6.17
2023-01-28T19:11:22.034Z,6.43
2023-01-28T19:13:48.657Z,6.90
2023-01-28T19:16:15.288Z,7.50
2023-01-28T19:18:41.916Z,7.53
2023-01-28T19:21:08.751Z,8.53
2023-01-28T19:23:49.372Z,7.23
2023-01-28T19:26:21.127Z,8.50
2023-01-28T19:28:51.646Z,7.30
2023-01-28T19:31:20.857Z,6.87
2023-01-28T19:33:48.516Z,7.93
2023-01-28T19:36:15.891Z,7.90
2023-01-28T19:38:42.710Z,8.43
2023-01-28T19:41:09.329Z,7.63
2023-01-28T19:43:36.219Z,7.70
2023-01-28T19:46:05.909Z,8.57
2023-01-28T19:48:33.200Z,7.23
2023-01-28T19:51:07.359Z,9.27
2023-01-28T19:53:35.356Z,9.67
2023-01-28T19:56:03.418Z,13.67
2023-01-28T19:58:33.812Z,9.80
2023-01-28T20:01:05.694Z,8.73
2023-01-28T20:03:32.201Z,9.20
2023-01-28T20:06:00.664Z,8.50
2023-01-28T20:08:27.136Z,8.67
2023-01-28T20:10:53.600Z,10.77
2023-01-28T20:13:20.064Z,8.90
2023-01-28T20:15:46.543Z,8.30
2023-01-28T20:18:12.975Z,8.50
2023-01-28T20:20:39.406Z,8.13
2023-01-28T20:23:06.516Z,8.40
2023-01-28T20:25:33.049Z,8.30
2023-01-28T20:27:59.489Z,9.07
2023-01-28T20:30:27.035Z,8.80
2023-01-28T20:32:53.665Z,10.20
2023-01-28T20:35:20.140Z,9.07
2023-01-28T20:37:46.580Z,8.87
2023-01-28T20:40:13.567Z,8.73
2023-01-28T20:42:39.962Z,8.43
2023-01-28T20:45:07.048Z,9.00
2023-01-28T20:47:33.513Z,7.67
2023-01-28T20:49:59.934Z,8.03
2023-01-28T20:52:26.794Z,9.20
2023-01-28T20:54:53.808Z,9.00
2023-01-28T20:57:20.300Z,8.03
2023-01-28T20:59:47.003Z,8.23
2023-01-28T21:02:13.452Z,9.37
2023-01-28T21:04:39.858Z,9.63
2023-01-28T21:07:06.338Z,8.77
2023-01-28T21:09:32.781Z,7.47
2023-01-28T21:11:59.552Z,8.73
2023-01-28T21:14:26.003Z,9.33
2023-01-28T21:16:53.193Z,8.80
2023-01-28T21:19:21.105Z,8.77
2023-01-28T21:21:47.578Z,7.50
2023-01-28T21:24:14.291Z,7.43
2023-01-28T21:26:40.833Z,7.90
2023-01-28T21:29:07.278Z,7.63
2023-01-28T21:31:33.706Z,7.83
2023-01-28T21:34:01.549Z,7.77
2023-01-28T21:36:31.629Z,7.83
2023-01-28T21:39:00.060Z,7.20
2023-01-28T21:41:27.328Z,7.57
2023-01-28T21:43:55.325Z,7.93
2023-01-28T21:46:23.836Z,7.60
2023-01-28T21:48:55.160Z,8.47
2023-01-28T21:51:45.774Z,8.97
2023-01-28T21:54:14.611Z,8.40
2023-01-28T21:56:42.903Z,8.00
2023-01-28T21:59:28.465Z,8.03
2023-01-28T22:01:56.460Z,7.77
2023-01-28T22:04:23.594Z,7.67
2023-01-28T22:06:52.134Z,7.90
2023-01-28T22:09:18.560Z,8.00
2023-01-28T22:11:45.369Z,8.77
2023-01-28T22:14:12.464Z,8.77
2023-01-28T22:16:39.116Z,8.67
2023-01-28T22:19:05.756Z,8.13
2023-01-28T22:21:32.815Z,7.73
2023-01-28T22:23:59.284Z,9.03
2023-01-28T22:26:25.742Z,8.87
2023-01-28T22:28:52.163Z,8.60
2023-01-28T22:31:18.714Z,8.30
2023-01-28T22:33:46.024Z,7.97
2023-01-28T22:36:15.122Z,9.67
2023-01-28T22:38:43.730Z,8.40
2023-01-28T22:41:19.397Z,8.73
2023-01-28T22:43:46.505Z,8.13
2023-01-28T22:46:13.169Z,9.00
2023-01-28T22:48:39.881Z,8.00
2023-01-28T22:51:10.533Z,7.80
2023-01-28T22:53:36.958Z,9.43
2023-01-28T22:56:03.599Z,8.23
2023-01-28T22:58:31.707Z,9.23
2023-01-28T23:00:58.621Z,8.53
2023-01-28T23:03:25.259Z,8.97
2023-01-28T23:05:52.023Z,8.57
2023-01-28T23:08:18.708Z,9.53
2023-01-28T23:10:52.272Z,8.50
2023-01-28T23:13:21.171Z,8.63
2023-01-28T23:16:08.016Z,7.77
2023-01-28T23:18:53.530Z,9.07
2023-01-28T23:21:44.807Z,8.97
2023-01-28T23:24:19.237Z,9.07
2023-01-28T23:26:47.050Z,8.07
2023-01-28T23:29:13.473Z,8.73
2023-01-28T23:31:42.291Z,8.20
2023-01-28T23:34:09.502Z,9.07
2023-01-28T23:36:36.325Z,8.27
2023-01-28T23:39:02.934Z,8.70
2023-01-28T23:41:29.345Z,9.37
2023-01-28T23:43:55.842Z,9.37
2023-01-28T23:46:33.846Z,8.97
2023-01-28T23:49:06.413Z,9.60
2023-01-28T23:51:32.900Z,8.67
2023-01-28T23:53:59.381Z,8.60
2023-01-28T23:56:25.849Z,9.47
2023-01-28T23:58:52.439Z,9.17
